createdAt,value
2019-03-29T00:04:13.135Z,48.27
2019-03-29T00:09:17.290Z,43.00
2019-03-29T00:14:23.368Z,51.50
2019-03-29T00:19:25.962Z,49.00
2019-03-29T00:24:37.710Z,47.20
2019-03-29T00:29:47.675Z,49.91
2019-03-29T00:34:53.395Z,49.71
2019-03-29T00:40:06.309Z,49.30
2019-03-29T00:45:13.831Z,45.00
2019-03-29T00:50:18.872Z,44.14
2019-03-29T00:55:24.488Z,47.00
2019-03-29T01:00:31.283Z,45.00
2019-03-29T01:05:41.449Z,42.20
2019-03-29T01:10:52.967Z,47.00
2019-03-29T01:16:03.755Z,46.10
2019-03-29T01:21:07.778Z,44.00
2019-03-29T01:26:19.482Z,47.79
2019-03-29T01:31:23.490Z,49.00
2019-03-29T01:36:35.196Z,48.57
2019-03-29T01:41:38.308Z,44.50
2019-03-29T01:46:43.720Z,48.00
2019-03-29T01:51:51.022Z,47.20
2019-03-29T01:57:02.671Z,48.50
2019-03-29T02:02:14.246Z,45.30
2019-03-29T02:07:19.324Z,47.29
2019-03-29T02:12:30.110Z,42.22
2019-03-29T02:17:38.399Z,42.22
2019-03-29T02:22:46.690Z,44.00
2019-03-29T02:27:58.239Z,49.70
2019-03-29T02:33:02.440Z,43.00
2019-03-29T02:38:06.163Z,38.00
2019-03-29T02:43:17.588Z,40.80
2019-03-29T02:48:29.171Z,38.20
2019-03-29T02:53:40.742Z,43.30
2019-03-29T02:58:44.650Z,39.00
2019-03-29T03:03:49.637Z,39.00
2019-03-29T03:09:13.243Z,37.33
2019-03-29T03:14:12.000Z,35.33
2019-03-29T03:19:19.442Z,35.56
2019-03-29T03:24:25.936Z,36.67
2019-03-29T03:29:36.645Z,40.12
2019-03-29T03:34:44.931Z,35.67
2019-03-29T03:39:50.217Z,38.57
2019-03-29T03:45:01.822Z,37.60
2019-03-29T03:50:08.896Z,38.00
2019-03-29T03:55:13.113Z,35.00
2019-03-29T04:00:17.779Z,37.00
2019-03-29T04:05:22.694Z,35.25
2019-03-29T04:10:30.059Z,35.00
2019-03-29T04:15:38.019Z,34.67
2019-03-29T04:20:46.083Z,38.80
2019-03-29T04:25:56.665Z,36.67
2019-03-29T04:31:06.375Z,35.00
2019-03-29T04:36:14.415Z,37.11
2019-03-29T04:41:22.376Z,35.00
2019-03-29T04:46:30.388Z,36.78
2019-03-29T04:51:37.578Z,32.33
2019-03-29T04:56:41.754Z,34.00
2019-03-29T05:01:49.747Z,34.33
2019-03-29T05:06:59.492Z,34.33
2019-03-29T05:12:07.649Z,33.00
2019-03-29T05:17:17.685Z,36.67
2019-03-29T05:22:25.750Z,36.22
2019-03-29T05:27:33.775Z,34.78
2019-03-29T05:32:43.097Z,34.33
2019-03-29T05:38:40.410Z,47.00
2019-03-29T05:43:47.040Z,36.00
2019-03-29T05:48:57.138Z,35.54
2019-03-29T05:54:05.443Z,36.50
2019-03-29T05:59:11.925Z,44.75
2019-03-29T06:04:22.491Z,41.44
2019-03-29T06:09:25.687Z,44.00
2019-03-29T06:14:29.339Z,45.80
2019-03-29T06:19:41.156Z,36.33
2019-03-29T06:24:45.988Z,33.43
2019-03-29T06:29:55.644Z,40.67
2019-03-29T06:35:06.674Z,35.33
2019-03-29T06:40:12.871Z,44.50
2019-03-29T06:45:16.687Z,41.80
2019-03-29T06:50:25.157Z,46.30
2019-03-29T06:55:30.095Z,40.17
2019-03-29T07:00:40.023Z,43.08
2019-03-29T07:05:45.244Z,39.14
2019-03-29T07:10:59.608Z,50.00
2019-03-29T07:16:09.175Z,49.71
2019-03-29T07:21:21.614Z,40.60
2019-03-29T07:26:22.851Z,48.11
2019-03-29T07:31:35.865Z,47.00
2019-03-29T07:36:40.794Z,45.67
2019-03-29T07:41:51.034Z,49.07
2019-03-29T07:47:03.595Z,40.77
2019-03-29T07:52:08.429Z,46.67
2019-03-29T07:57:11.979Z,44.67
2019-03-29T08:02:15.814Z,37.80
2019-03-29T08:07:27.463Z,38.50
2019-03-29T08:12:35.315Z,39.50
2019-03-29T08:17:40.389Z,40.50
2019-03-29T08:22:44.919Z,41.67
2019-03-29T08:27:55.658Z,43.56
2019-03-29T08:33:01.376Z,46.29
2019-03-29T08:38:06.692Z,38.43
2019-03-29T08:43:11.018Z,39.00
2019-03-29T08:48:22.402Z,40.50
2019-03-29T08:53:31.172Z,34.56
2019-03-29T08:58:34.698Z,39.00
2019-03-29T09:03:38.400Z,34.00
2019-03-29T09:08:46.371Z,44.00
2019-03-29T09:13:58.008Z,39.60
2019-03-29T09:19:02.207Z,35.00
2019-03-29T09:24:21.286Z,39.10
2019-03-29T09:29:16.146Z,34.25
2019-03-29T09:34:23.159Z,38.00
2019-03-29T09:39:30.316Z,33.38
2019-03-29T09:44:34.224Z,29.00
2019-03-29T09:49:40.146Z,29.29
2019-03-29T09:54:48.175Z,24.75
2019-03-29T09:59:55.624Z,28.00
2019-03-29T10:05:01.428Z,24.86
2019-03-29T10:10:07.091Z,27.00
2019-03-29T10:15:11.009Z,27.00
2019-03-29T10:20:18.931Z,25.75
2019-03-29T10:25:26.004Z,28.50
2019-03-29T10:30:36.795Z,26.00
2019-03-29T10:35:51.727Z,29.75
2019-03-29T10:40:50.710Z,32.50
2019-03-29T10:45:57.191Z,26.25
2019-03-29T10:51:08.182Z,27.71
2019-03-29T10:56:11.671Z,23.00
2019-03-29T11:01:15.576Z,28.67
2019-03-29T11:06:21.794Z,25.37
2019-03-29T11:11:30.106Z,30.71
2019-03-29T11:16:34.524Z,15.25
2019-03-29T11:21:38.214Z,29.50
2019-03-29T11:26:46.434Z,25.11
2019-03-29T11:31:54.308Z,27.50
2019-03-29T11:37:00.627Z,24.00
2019-03-29T11:42:10.080Z,22.13
2019-03-29T11:47:19.191Z,22.62
2019-03-29T11:52:25.603Z,29.87
2019-03-29T11:57:31.320Z,28.75
2019-03-29T12:02:38.003Z,28.75
2019-03-29T12:07:41.222Z,22.67
2019-03-29T12:12:47.775Z,27.37
2019-03-29T12:17:54.961Z,33.88
2019-03-29T12:22:58.190Z,27.33
2019-03-29T12:28:03.274Z,28.00
2019-03-29T12:33:08.769Z,29.43
2019-03-29T12:38:12.777Z,33.67
2019-03-29T12:43:22.466Z,37.55
2019-03-29T12:48:26.995Z,45.80
2019-03-29T12:53:30.139Z,49.50
2019-03-29T12:58:35.638Z,45.67
2019-03-29T13:03:45.763Z,33.33
2019-03-29T13:08:51.034Z,28.86
2019-03-29T13:14:09.929Z,31.50
2019-03-29T13:19:41.860Z,28.79
2019-03-29T13:24:46.134Z,30.00
2019-03-29T13:29:51.064Z,30.00
2019-03-29T13:34:54.571Z,33.00
2019-03-29T13:40:01.475Z,27.37
2019-03-29T13:45:08.400Z,28.38
2019-03-29T13:55:17.885Z,43.00
2019-03-29T14:00:24.017Z,27.62
2019-03-29T14:05:28.401Z,26.25
2019-03-29T14:10:35.736Z,27.43
2019-03-29T14:15:41.247Z,31.00
2019-03-29T14:20:47.833Z,34.50
2019-03-29T14:25:55.459Z,28.00
2019-03-29T14:31:02.751Z,27.00
2019-03-29T14:36:09.852Z,32.80
2019-03-29T14:41:17.912Z,29.22
2019-03-29T14:46:22.321Z,34.33
2019-03-29T14:51:29.671Z,31.12
2019-03-29T14:56:35.647Z,25.37
2019-03-29T15:01:39.926Z,29.33
2019-03-29T15:06:44.470Z,27.00
2019-03-29T15:11:48.115Z,25.00
2019-03-29T15:16:51.886Z,29.00
2019-03-29T15:21:57.808Z,26.00
2019-03-29T15:27:07.990Z,30.79
2019-03-29T15:32:47.172Z,28.18
2019-03-29T15:37:52.814Z,26.67
2019-03-29T15:42:56.980Z,29.00
2019-03-29T15:48:03.356Z,29.00
2019-03-29T15:53:12.052Z,22.62
2019-03-29T15:58:24.091Z,31.50
2019-03-29T16:03:31.992Z,31.87
2019-03-29T16:08:48.107Z,33.94
2019-03-29T16:13:56.306Z,27.00
2019-03-29T16:19:04.770Z,34.90
2019-03-29T16:24:10.936Z,30.12
2019-03-29T16:29:18.713Z,27.71
2019-03-29T16:34:27.999Z,27.25
2019-03-29T16:39:32.062Z,28.00
2019-03-29T16:44:39.813Z,25.33
2019-03-29T16:49:49.103Z,30.00
2019-03-29T16:54:56.131Z,29.33
2019-03-29T17:00:12.303Z,29.78
2019-03-29T17:05:16.091Z,30.00
2019-03-29T17:10:24.451Z,31.87
2019-03-29T17:15:27.943Z,25.33
2019-03-29T17:20:33.912Z,31.00
2019-03-29T17:25:39.611Z,30.71
2019-03-29T17:30:47.306Z,29.37
2019-03-29T17:35:53.888Z,29.75
2019-03-29T17:40:57.360Z,30.00
2019-03-29T17:46:15.206Z,28.00
2019-03-29T17:51:09.211Z,28.12
2019-03-29T17:56:13.038Z,30.25
2019-03-29T18:01:17.612Z,30.00
2019-03-29T18:06:28.546Z,32.11
2019-03-29T18:11:35.599Z,32.00
2019-03-29T18:16:40.468Z,31.00
2019-03-29T18:21:45.145Z,30.25
2019-03-29T18:26:54.390Z,31.75
2019-03-29T18:32:00.917Z,33.75
2019-03-29T18:37:08.442Z,33.00
2019-03-29T18:42:19.094Z,45.80
2019-03-29T18:47:26.332Z,33.25
2019-03-29T18:52:38.924Z,38.63
2019-03-29T18:57:48.564Z,33.50
2019-03-29T19:02:55.954Z,33.22
2019-03-29T19:08:00.043Z,46.00
2019-03-29T19:13:08.403Z,39.00
2019-03-29T19:18:15.341Z,34.89
2019-03-29T19:23:20.194Z,39.67
2019-03-29T19:28:24.307Z,38.60
2019-03-29T19:33:34.008Z,42.08
2019-03-29T19:38:38.434Z,36.67
2019-03-29T19:43:48.269Z,44.79
2019-03-29T19:48:54.922Z,58.86
2019-03-29T19:54:08.146Z,46.58
2019-03-29T19:59:23.472Z,35.41
2019-03-29T20:04:28.443Z,39.00
2019-03-29T20:09:33.361Z,49.00
2019-03-29T20:14:37.855Z,37.80
2019-03-29T20:19:44.821Z,49.33
2019-03-29T20:24:56.031Z,49.71
2019-03-29T20:30:08.164Z,40.33
2019-03-29T20:35:11.877Z,43.00
2019-03-29T20:40:18.161Z,41.50
2019-03-29T20:45:21.886Z,42.40
2019-03-29T20:50:32.770Z,48.67
2019-03-29T20:55:38.787Z,42.13
2019-03-29T21:00:53.514Z,50.64
2019-03-29T21:06:05.298Z,45.73
2019-03-29T21:11:12.212Z,44.00
2019-03-29T21:16:15.486Z,39.67
2019-03-29T21:21:19.650Z,43.00
2019-03-29T21:26:24.930Z,37.00
2019-03-29T21:31:36.398Z,43.63
2019-03-29T21:36:48.662Z,52.33
2019-03-29T21:41:57.024Z,36.00
2019-03-29T21:47:08.023Z,35.93
2019-03-29T21:52:12.434Z,38.67
2019-03-29T21:57:29.970Z,41.76
2019-03-29T22:02:45.123Z,46.06
2019-03-29T22:07:49.799Z,44.50
2019-03-29T22:13:00.308Z,39.00
2019-03-29T22:18:06.884Z,40.80
2019-03-29T22:23:15.500Z,39.00
2019-03-29T22:28:18.995Z,38.00
2019-03-29T22:33:22.256Z,43.75
2019-03-29T22:38:26.460Z,41.00
2019-03-29T22:43:31.121Z,35.20
2019-03-29T22:48:35.520Z,54.00
2019-03-29T22:53:42.742Z,37.00
2019-03-29T22:58:47.295Z,55.00
2019-03-29T23:03:52.287Z,45.00
2019-03-29T23:08:59.263Z,45.83
2019-03-29T23:14:14.366Z,43.15
2019-03-29T23:19:19.178Z,39.50
2019-03-29T23:24:27.394Z,41.50
2019-03-29T23:29:39.798Z,39.87
2019-03-29T23:34:51.248Z,41.93
2019-03-29T23:40:06.974Z,43.40
2019-03-29T23:45:20.987Z,35.21
2019-03-29T23:50:26.842Z,37.00
2019-03-29T23:55:35.641Z,38.50
